Time;durP1;ratioP1;P1;durP2;ratioP2;P2;SDS_P1;SDS_P2;PMS_P1;PMS_P2;Temp;Humidity;BMP_temperature;BMP_pressure;BME280_temperature;BME280_humidity;BME280_pressure;Samples;Min_cycle;Max_cycle;Signal;HPM_P1;HPM_P2
2022/06/07 00:01:36;;;;;;;;;;;;;;;;;;5105844;28;19924;-79
2022/06/07 00:04:02;;;;;;;;;;;;;;;;;;5104585;28;19995;-79
2022/06/07 00:06:29;;;;;;;;;;;;;;;;;;5100649;28;19961;-79
2022/06/07 00:08:55;;;;;;;;;;;;;;;;;;5100114;28;19916;-79
2022/06/07 00:11:22;;;;;;;;;;;;;;;;;;5100705;28;19920;-78
2022/06/07 00:13:48;;;;;;;;;;;;;;;;;;5101126;28;19917;-79
2022/06/07 00:16:14;;;;;;;;;;;;;;;;;;5085695;28;19938;-80
2022/06/07 00:18:40;;;;;;;;;;;;;;;;;;5084158;28;19923;-78
2022/06/07 00:21:05;;;;;;;;;;;;;;;;;;5095194;28;20289;-77
2022/06/07 00:23:31;;;;;;;;;;;;;;;;;;5095893;28;19917;-78
2022/06/07 00:25:58;;;;;;;;;;;;;;;;;;5080129;28;19927;-77
2022/06/07 00:28:23;;;;;;;;;;;;;;;;;;5079113;28;19951;-78
2022/06/07 00:30:50;;;;;;;;;;;;;;;;;;5078364;28;19966;-78
2022/06/07 00:33:15;;;;;;;;;;;;;;;;;;5076918;28;19916;-77
2022/06/07 00:35:41;;;;;;;;;;;;;;;;;;5076001;28;19927;-77
2022/06/07 00:38:06;;;;;;;;;;;;;;;;;;5058803;28;19967;-77
2022/06/07 00:40:32;;;;;;;;;;;;;;;;;;5076142;28;19921;-77
2022/06/07 00:42:57;;;;;;;;;;;;;;;;;;5080424;28;19946;-77
2022/06/07 00:45:23;;;;;;;;;;;;;;;;;;5072416;28;19939;-77
2022/06/07 00:47:49;;;;;;;;;;;;;;;;;;5080648;28;19999;-77
2022/06/07 00:50:33;;;;;;;;;;;;;;;;;;5063664;28;19973;-78
2022/06/07 00:52:59;;;;;;;;;;;;;;;;;;5079673;28;19917;-77
2022/06/07 00:55:27;;;;;;;;;;;;;;;;;;5063360;28;20109;-77
2022/06/07 00:57:59;;;;;;;;;;;;;;;;;;5065060;28;19912;-77
2022/06/07 01:00:33;;;;;;;;;;;;;;;;;;5063146;28;19925;-77
2022/06/07 01:03:00;;;;;;;;;;;;;;;;;;5059205;28;20370;-77
2022/06/07 01:05:27;;;;;;;;;;;;;;;;;;5077441;28;19931;-78
2022/06/07 01:10:45;;;;;;;;;;;;;;;;;;5096249;28;20022;-77
2022/06/07 01:13:25;;;;;;;;;;;;;;;;;;5080935;28;19938;-77
2022/06/07 01:15:58;;;;;;;;;;;;;;;;;;5079605;28;19977;-77
2022/06/07 01:18:26;;;;;;;;;;;;;;;;;;5081537;28;19958;-78
2022/06/07 01:21:10;;;;;;;;;;;;;;;;;;5083640;28;19920;-77
2022/06/07 01:23:36;;;;;;;;;;;;;;;;;;5100510;28;19916;-78
2022/06/07 01:26:02;;;;;;;;;;;;;;;;;;5082558;28;19916;-77
2022/06/07 01:28:29;;;;;;;;;;;;;;;;;;5082605;28;19916;-77
2022/06/07 01:30:58;;;;;;;;;;;;;;;;;;5092830;28;19923;-77
2022/06/07 01:33:24;;;;;;;;;;;;;;;;;;5071517;28;19923;-77
2022/06/07 01:36:07;;;;;;;;;;;;;;;;;;5056034;28;19916;-77
2022/06/07 01:38:33;;;;;;;;;;;;;;;;;;5073363;28;20297;-77
2022/06/07 01:43:42;;;;;;;;;;;;;;;;;;5096329;28;19927;-77
2022/06/07 01:46:08;;;;;;;;;;;;;;;;;;5095615;28;19916;-77
2022/06/07 01:48:37;;;;;;;;;;;;;;;;;;5080055;28;19920;-77
2022/06/07 01:51:05;;;;;;;;;;;;;;;;;;5079637;28;19916;-77
2022/06/07 01:53:32;;;;;;;;;;;;;;;;;;5096380;28;20338;-77
2022/06/07 01:56:02;;;;;;;;;;;;;;;;;;5095723;28;20369;-77
2022/06/07 01:58:28;;;;;;;;;;;;;;;;;;5079112;28;20385;-77
2022/06/07 02:00:55;;;;;;;;;;;;;;;;;;5077469;28;19920;-77
2022/06/07 02:03:22;;;;;;;;;;;;;;;;;;5080141;28;20289;-77
2022/06/07 02:06:02;;;;;;;;;;;;;;;;;;5096641;28;19923;-77
2022/06/07 02:08:27;;;;;;;;;;;;;;;;;;5075671;28;20368;-78
2022/06/07 02:10:53;;;;;;;;;;;;;;;;;;5076737;28;19973;-78
2022/06/07 02:13:21;;;;;;;;;;;;;;;;;;5083241;28;19927;-80
2022/06/07 02:15:47;;;;;;;;;;;;;;;;;;5084152;28;19920;-78
2022/06/07 02:18:13;;;;;;;;;;;;;;;;;;5085778;28;19916;-78
2022/06/07 02:21:03;;;;;;;;;;;;;;;;;;5094082;28;19920;-78
2022/06/07 02:23:30;;;;;;;;;;;;;;;;;;5085177;28;19916;-79
2022/06/07 02:25:59;;;;;;;;;;;;;;;;;;5078779;28;20335;-78
2022/06/07 02:28:26;;;;;;;;;;;;;;;;;;5095314;28;19919;-78
2022/06/07 02:30:53;;;;;;;;;;;;;;;;;;5077941;28;19916;-77
2022/06/07 02:33:22;;;;;;;;;;;;;;;;;;5076705;28;19920;-77
2022/06/07 02:35:48;;;;;;;;;;;;;;;;;;5076371;28;19923;-77
2022/06/07 02:38:14;;;;;;;;;;;;;;;;;;5076119;28;19916;-77
2022/06/07 02:40:40;;;;;;;;;;;;;;;;;;5076886;28;19963;-77
2022/06/07 02:43:05;;;;;;;;;;;;;;;;;;5094791;28;20258;-77
2022/06/07 02:45:31;;;;;;;;;;;;;;;;;;5061967;28;19917;-77
2022/06/07 02:47:58;;;;;;;;;;;;;;;;;;5059426;28;19944;-78
2022/06/07 02:50:23;;;;;;;;;;;;;;;;;;5075288;28;19923;-77
2022/06/07 02:52:51;;;;;;;;;;;;;;;;;;5075359;28;19917;-78
2022/06/07 02:55:21;;;;;;;;;;;;;;;;;;5073878;28;19916;-77
2022/06/07 02:57:49;;;;;;;;;;;;;;;;;;5055160;28;19925;-76
2022/06/07 03:00:20;;;;;;;;;;;;;;;;;;5074301;28;19928;-77
2022/06/07 03:02:47;;;;;;;;;;;;;;;;;;5092887;28;19924;-76
2022/06/07 03:05:14;;;;;;;;;;;;;;;;;;5075068;28;19923;-76
2022/06/07 03:07:47;;;;;;;;;;;;;;;;;;5075639;28;19920;-76
2022/06/07 03:10:12;;;;;;;;;;;;;;;;;;5092878;28;19923;-76
2022/06/07 03:12:38;;;;;;;;;;;;;;;;;;5092946;28;19962;-76
2022/06/07 03:15:05;;;;;;;;;;;;;;;;;;5074695;28;19916;-76
2022/06/07 03:17:30;;;;;;;;;;;;;;;;;;5074884;28;19959;-76
2022/06/07 03:19:56;;;;;;;;;;;;;;;;;;5089983;28;19978;-76
2022/06/07 03:22:23;;;;;;;;;;;;;;;;;;5089299;28;19954;-76
2022/06/07 03:24:51;;;;;;;;;;;;;;;;;;5075048;28;19939;-77
2022/06/07 03:27:19;;;;;;;;;;;;;;;;;;5093037;28;19926;-76
2022/06/07 03:29:47;;;;;;;;;;;;;;;;;;5093625;28;20323;-77
2022/06/07 03:32:18;;;;;;;;;;;;;;;;;;5080625;28;19962;-77
2022/06/07 03:34:44;;;;;;;;;;;;;;;;;;5079102;28;20293;-77
2022/06/07 03:37:10;;;;;;;;;;;;;;;;;;5079373;28;19960;-77
2022/06/07 03:39:40;;;;;;;;;;;;;;;;;;5095537;28;19916;-76
2022/06/07 03:42:06;;;;;;;;;;;;;;;;;;5077971;28;20323;-77
2022/06/07 03:44:35;;;;;;;;;;;;;;;;;;5078915;28;19923;-77
2022/06/07 03:47:12;;;;;;;;;;;;;;;;;;5080337;28;20061;-77
2022/06/07 03:49:38;;;;;;;;;;;;;;;;;;5095078;28;19985;-77
2022/06/07 03:52:04;;;;;;;;;;;;;;;;;;5095701;28;19917;-77
2022/06/07 03:54:34;;;;;;;;;;;;;;;;;;5079785;28;19920;-77
2022/06/07 03:57:00;;;;;;;;;;;;;;;;;;5078971;28;19923;-77
2022/06/07 03:59:28;;;;;;;;;;;;;;;;;;5078740;28;19924;-77
2022/06/07 04:01:56;;;;;;;;;;;;;;;;;;5063568;28;20322;-77
2022/06/07 04:04:24;;;;;;;;;;;;;;;;;;5077151;28;19924;-77
2022/06/07 04:09:44;;;;;;;;;;;;;;;;;;5067776;28;19926;-77
2022/06/07 04:12:19;;;;;;;;;;;;;;;;;;5079589;28;19935;-77
2022/06/07 04:14:45;;;;;;;;;;;;;;;;;;5079063;28;20288;-77
2022/06/07 04:17:12;;;;;;;;;;;;;;;;;;5077532;28;19916;-77
2022/06/07 04:19:41;;;;;;;;;;;;;;;;;;5077775;28;19916;-78
2022/06/07 04:22:06;;;;;;;;;;;;;;;;;;5094189;28;19919;-76
2022/06/07 04:24:38;;;;;;;;;;;;;;;;;;5078471;28;19916;-76
2022/06/07 04:27:04;;;;;;;;;;;;;;;;;;5077471;28;20066;-77
2022/06/07 04:29:32;;;;;;;;;;;;;;;;;;5078705;28;19916;-78
2022/06/07 04:31:58;;;;;;;;;;;;;;;;;;5079915;28;20062;-78
2022/06/07 04:34:25;;;;;;;;;;;;;;;;;;5081451;28;20350;-77
2022/06/07 04:36:51;;;;;;;;;;;;;;;;;;5081187;28;19923;-77
2022/06/07 04:39:23;;;;;;;;;;;;;;;;;;5082638;28;19965;-77
2022/06/07 04:41:58;;;;;;;;;;;;;;;;;;5080947;28;19920;-78
2022/06/07 04:44:31;;;;;;;;;;;;;;;;;;5081665;28;19921;-78
2022/06/07 04:46:59;;;;;;;;;;;;;;;;;;5081446;28;19923;-77
2022/06/07 04:49:31;;;;;;;;;;;;;;;;;;5060228;28;19924;-77
2022/06/07 04:51:57;;;;;;;;;;;;;;;;;;5060316;28;20019;-77
2022/06/07 04:54:34;;;;;;;;;;;;;;;;;;5077272;28;19970;-77
2022/06/07 04:57:03;;;;;;;;;;;;;;;;;;5076975;28;20386;-77
2022/06/07 04:59:31;;;;;;;;;;;;;;;;;;5077574;28;19921;-77
2022/06/07 05:02:00;;;;;;;;;;;;;;;;;;5076827;28;20332;-78
2022/06/07 05:04:29;;;;;;;;;;;;;;;;;;5081535;28;20243;-77
2022/06/07 05:06:58;;;;;;;;;;;;;;;;;;5077511;28;19926;-77
2022/06/07 05:09:33;;;;;;;;;;;;;;;;;;5076840;28;19916;-77
2022/06/07 05:12:10;;;;;;;;;;;;;;;;;;5079921;28;19920;-77
2022/06/07 05:14:44;;;;;;;;;;;;;;;;;;5080495;28;19961;-78
2022/06/07 05:17:13;;;;;;;;;;;;;;;;;;5078863;28;19923;-77
2022/06/07 05:19:42;;;;;;;;;;;;;;;;;;5077219;28;19926;-77
2022/06/07 05:22:15;;;;;;;;;;;;;;;;;;5077424;28;19924;-77
2022/06/07 05:24:53;;;;;;;;;;;;;;;;;;5079126;28;19923;-78
2022/06/07 05:27:25;;;;;;;;;;;;;;;;;;5078597;28;20408;-77
2022/06/07 05:29:54;;;;;;;;;;;;;;;;;;5076776;28;19920;-77
2022/06/07 05:32:43;;;;;;;;;;;;;;;;;;5077125;28;20002;-77
2022/06/07 05:35:14;;;;;;;;;;;;;;;;;;5076885;28;19917;-77
2022/06/07 05:37:44;;;;;;;;;;;;;;;;;;5077227;28;20271;-77
2022/06/07 05:40:22;;;;;;;;;;;;;;;;;;5062106;28;19959;-77
2022/06/07 05:42:49;;;;;;;;;;;;;;;;;;5061135;28;19979;-77
2022/06/07 05:45:24;;;;;;;;;;;;;;;;;;5061750;28;19927;-77
2022/06/07 05:47:54;;;;;;;;;;;;;;;;;;5076333;28;20392;-77
2022/06/07 05:50:20;;;;;;;;;;;;;;;;;;5077051;28;19912;-77
2022/06/07 05:52:52;;;;;;;;;;;;;;;;;;5076836;28;20019;-77
2022/06/07 05:55:17;;;;;;;;;;;;;;;;;;5076135;28;19939;-77
2022/06/07 05:57:51;;;;;;;;;;;;;;;;;;5059783;28;19917;-77
2022/06/07 06:00:17;;;;;;;;;;;;;;;;;;5075845;28;19931;-77
2022/06/07 06:02:48;;;;;;;;;;;;;;;;;;5076258;28;19917;-77
2022/06/07 06:05:30;;;;;;;;;;;;;;;;;;5065050;28;19940;-77
2022/06/07 06:10:45;;;;;;;;;;;;;;;;;;5076914;28;19966;-78
2022/06/07 06:13:11;;;;;;;;;;;;;;;;;;5061118;28;19920;-77
2022/06/07 06:15:38;;;;;;;;;;;;;;;;;;5077345;28;20355;-78
2022/06/07 06:18:05;;;;;;;;;;;;;;;;;;5076818;28;19923;-78
2022/06/07 06:20:35;;;;;;;;;;;;;;;;;;5077667;28;20384;-78
2022/06/07 06:23:05;;;;;;;;;;;;;;;;;;5064912;28;19970;-78
2022/06/07 06:25:32;;;;;;;;;;;;;;;;;;5065753;28;19916;-78
2022/06/07 06:27:57;;;;;;;;;;;;;;;;;;5083611;28;19923;-78
2022/06/07 06:30:25;;;;;;;;;;;;;;;;;;5085804;28;20007;-78
2022/06/07 06:33:00;;;;;;;;;;;;;;;;;;5084103;28;19966;-78
2022/06/07 06:35:26;;;;;;;;;;;;;;;;;;5077469;28;19916;-79
2022/06/07 06:37:53;;;;;;;;;;;;;;;;;;5087384;28;19923;-78
2022/06/07 06:40:22;;;;;;;;;;;;;;;;;;5088362;28;19926;-78
2022/06/07 06:42:55;;;;;;;;;;;;;;;;;;5089803;28;19938;-79
2022/06/07 06:45:34;;;;;;;;;;;;;;;;;;5091553;28;20349;-79
2022/06/07 06:48:08;;;;;;;;;;;;;;;;;;5090073;28;19955;-79
2022/06/07 06:50:35;;;;;;;;;;;;;;;;;;5087911;28;19965;-79
2022/06/07 06:53:02;;;;;;;;;;;;;;;;;;5089295;28;19911;-79
2022/06/07 06:55:31;;;;;;;;;;;;;;;;;;5083066;28;19916;-80
2022/06/07 06:57:59;;;;;;;;;;;;;;;;;;5102103;28;19916;-79
2022/06/07 07:00:26;;;;;;;;;;;;;;;;;;5087490;28;20522;-81
2022/06/07 07:02:53;;;;;;;;;;;;;;;;;;5081355;28;19982;-77
2022/06/07 07:05:19;;;;;;;;;;;;;;;;;;5072292;28;19916;-77
2022/06/07 07:07:54;;;;;;;;;;;;;;;;;;5076568;28;20370;-77
2022/06/07 07:10:23;;;;;;;;;;;;;;;;;;5060927;28;19923;-78
2022/06/07 07:12:50;;;;;;;;;;;;;;;;;;5077366;28;19917;-78
2022/06/07 07:15:19;;;;;;;;;;;;;;;;;;5060443;28;19983;-77
2022/06/07 07:18:01;;;;;;;;;;;;;;;;;;5075712;28;19916;-76
2022/06/07 07:20:29;;;;;;;;;;;;;;;;;;5074687;28;20021;-76
2022/06/07 07:22:57;;;;;;;;;;;;;;;;;;5075009;28;20000;-77
2022/06/07 07:25:23;;;;;;;;;;;;;;;;;;5074750;28;19944;-76
2022/06/07 07:27:50;;;;;;;;;;;;;;;;;;5080727;28;19920;-76
2022/06/07 07:30:17;;;;;;;;;;;;;;;;;;5081741;28;20452;-79
2022/06/07 07:32:44;;;;;;;;;;;;;;;;;;5080070;28;19970;-77
2022/06/07 07:35:13;;;;;;;;;;;;;;;;;;5081464;28;19942;-78
2022/06/07 07:37:54;;;;;;;;;;;;;;;;;;5086353;28;19916;-78
2022/06/07 07:40:21;;;;;;;;;;;;;;;;;;5082800;28;19927;-78
2022/06/07 07:42:47;;;;;;;;;;;;;;;;;;5081502;28;19916;-78
2022/06/07 07:45:20;;;;;;;;;;;;;;;;;;5082111;28;20296;-78
2022/06/07 07:47:49;;;;;;;;;;;;;;;;;;5098346;28;19916;-78
2022/06/07 07:50:16;;;;;;;;;;;;;;;;;;5080641;28;19970;-77
2022/06/07 07:52:47;;;;;;;;;;;;;;;;;;5081439;28;19927;-78
2022/06/07 07:55:13;;;;;;;;;;;;;;;;;;5096949;28;20289;-78
2022/06/07 07:57:39;;;;;;;;;;;;;;;;;;5081655;28;19923;-79
2022/06/07 08:00:09;;;;;;;;;;;;;;;;;;5083727;28;19977;-79
2022/06/07 08:02:39;;;;;;;;;;;;;;;;;;5099568;28;20292;-79
2022/06/07 08:05:16;;;;;;;;;;;;;;;;;;5082645;28;19955;-78
2022/06/07 08:07:43;;;;;;;;;;;;;;;;;;5095953;28;19920;-77
2022/06/07 08:10:09;;;;;;;;;;;;;;;;;;5077076;28;19995;-76
2022/06/07 08:12:34;;;;;;;;;;;;;;;;;;5074769;28;19971;-77
2022/06/07 08:15:00;;;;;;;;;;;;;;;;;;5060099;28;19916;-77
2022/06/07 08:17:27;;;;;;;;;;;;;;;;;;5058001;28;19940;-77
2022/06/07 08:19:52;;;;;;;;;;;;;;;;;;5074202;28;20352;-77
2022/06/07 08:22:19;;;;;;;;;;;;;;;;;;5056217;28;20529;-76
2022/06/07 08:24:45;;;;;;;;;;;;;;;;;;5073753;28;20348;-76
2022/06/07 08:27:11;;;;;;;;;;;;;;;;;;5057616;28;19916;-76
2022/06/07 08:29:38;;;;;;;;;;;;;;;;;;5075174;28;19965;-77
2022/06/07 08:32:04;;;;;;;;;;;;;;;;;;5087006;28;19916;-76
2022/06/07 08:39:58;;;;;;;;;;;;;;;;;;5074384;28;20011;-79
2022/06/07 08:42:30;;;;;;;;;;;;;;;;;;5073842;28;19963;-76
2022/06/07 08:44:56;;;;;;;;;;;;;;;;;;5060366;28;19916;-81
2022/06/07 08:47:29;;;;;;;;;;;;;;;;;;5078547;28;19919;-75
2022/06/07 08:49:57;;;;;;;;;;;;;;;;;;5094923;28;19924;-76
2022/06/07 08:52:26;;;;;;;;;;;;;;;;;;5093215;28;19916;-75
2022/06/07 08:54:51;;;;;;;;;;;;;;;;;;5091823;28;19959;-76
2022/06/07 08:57:29;;;;;;;;;;;;;;;;;;5093746;28;19920;-75
2022/06/07 08:59:57;;;;;;;;;;;;;;;;;;5093314;28;19970;-75
2022/06/07 09:02:23;;;;;;;;;;;;;;;;;;5076476;28;20362;-75
2022/06/07 09:04:49;;;;;;;;;;;;;;;;;;5084464;28;19916;-74
2022/06/07 09:07:16;;;;;;;;;;;;;;;;;;5072695;28;19913;-76
2022/06/07 09:12:30;;;;;;;;;;;;;;;;;;5073146;28;19917;-77
2022/06/07 09:15:04;;;;;;;;;;;;;;;;;;5074400;28;19923;-76
2022/06/07 09:17:33;;;;;;;;;;;;;;;;;;5072381;28;20011;-76
2022/06/07 09:19:59;;;;;;;;;;;;;;;;;;5074163;28;20292;-76
2022/06/07 09:22:29;;;;;;;;;;;;;;;;;;5071889;28;19921;-75
2022/06/07 09:24:58;;;;;;;;;;;;;;;;;;5072471;28;19924;-75
2022/06/07 09:27:25;;;;;;;;;;;;;;;;;;5073103;28;19939;-75
2022/06/07 09:29:53;;;;;;;;;;;;;;;;;;5072560;28;19923;-75
2022/06/07 09:32:19;;;;;;;;;;;;;;;;;;5071935;28;19916;-76
2022/06/07 09:34:56;;;;;;;;;;;;;;;;;;5080681;28;19977;-76
2022/06/07 09:37:43;;;;;;;;;;;;;;;;;;5092288;28;19916;-76
2022/06/07 09:40:19;;;;;;;;;;;;;;;;;;5075826;28;19916;-77
2022/06/07 09:42:49;;;;;;;;;;;;;;;;;;5092153;28;19920;-75
2022/06/07 09:45:27;;;;;;;;;;;;;;;;;;5093294;28;20292;-77
2022/06/07 09:47:53;;;;;;;;;;;;;;;;;;5077229;28;19923;-76
2022/06/07 09:50:18;;;;;;;;;;;;;;;;;;5092428;28;19916;-77
2022/06/07 09:52:46;;;;;;;;;;;;;;;;;;5093133;28;19916;-78
2022/06/07 09:55:19;;;;;;;;;;;;;;;;;;5078380;28;19938;-77
2022/06/07 09:57:53;;;;;;;;;;;;;;;;;;5093040;28;19916;-76
2022/06/07 10:00:21;;;;;;;;;;;;;;;;;;5092387;28;20378;-76
2022/06/07 10:02:58;;;;;;;;;;;;;;;;;;5093121;28;19916;-76
2022/06/07 10:05:33;;;;;;;;;;;;;;;;;;5092518;28;20362;-76
2022/06/07 10:07:58;;;;;;;;;;;;;;;;;;5075007;28;19961;-76
2022/06/07 10:10:24;;;;;;;;;;;;;;;;;;5092364;28;19916;-76
2022/06/07 10:13:08;;;;;;;;;;;;;;;;;;5092373;28;19912;-77
2022/06/07 10:15:43;;;;;;;;;;;;;;;;;;5077963;28;19923;-77
2022/06/07 10:18:17;;;;;;;;;;;;;;;;;;5092365;28;20407;-77
2022/06/07 10:20:58;;;;;;;;;;;;;;;;;;5076314;28;19972;-78
2022/06/07 10:23:26;;;;;;;;;;;;;;;;;;5094415;28;19960;-77
2022/06/07 10:25:55;;;;;;;;;;;;;;;;;;5093975;28;19916;-79
2022/06/07 10:28:33;;;;;;;;;;;;;;;;;;5078213;28;20014;-79
2022/06/07 10:31:01;;;;;;;;;;;;;;;;;;5096319;28;20015;-79
2022/06/07 10:33:47;;;;;;;;;;;;;;;;;;5077516;28;20416;-79
2022/06/07 10:36:35;;;;;;;;;;;;;;;;;;5096716;28;20294;-79
2022/06/07 10:39:11;;;;;;;;;;;;;;;;;;5096532;28;19920;-78
2022/06/07 10:41:44;;;;;;;;;;;;;;;;;;5082698;28;19990;-78
2022/06/07 10:44:16;;;;;;;;;;;;;;;;;;5096722;28;20011;-78
2022/06/07 10:46:43;;;;;;;;;;;;;;;;;;5096485;28;19927;-78
2022/06/07 10:49:16;;;;;;;;;;;;;;;;;;5090428;28;19916;-78
2022/06/07 10:54:38;;;;;;;;;;;;;;;;;;5106519;28;20009;-78
2022/06/07 10:57:09;;;;;;;;;;;;;;;;;;5089675;28;19951;-78
2022/06/07 10:59:42;;;;;;;;;;;;;;;;;;5089445;28;19948;-78
2022/06/07 11:02:24;;;;;;;;;;;;;;;;;;5070048;28;19928;-78
2022/06/07 11:10:34;;;;;;;;;;;;;;;;;;5085378;28;19916;-78
2022/06/07 11:13:05;;;;;;;;;;;;;;;;;;5068171;28;19916;-78
2022/06/07 11:15:36;;;;;;;;;;;;;;;;;;5083365;28;19916;-78
2022/06/07 11:18:07;;;;;;;;;;;;;;;;;;5086039;28;19974;-78
2022/06/07 11:20:34;;;;;;;;;;;;;;;;;;5085408;28;19921;-78
2022/06/07 11:23:01;;;;;;;;;;;;;;;;;;5086634;28;19917;-78
2022/06/07 11:25:37;;;;;;;;;;;;;;;;;;5087837;28;20411;-79
2022/06/07 11:28:13;;;;;;;;;;;;;;;;;;5085839;28;20281;-78
2022/06/07 11:30:39;;;;;;;;;;;;;;;;;;5086420;28;19916;-79
2022/06/07 11:33:23;;;;;;;;;;;;;;;;;;5069674;28;19931;-78
2022/06/07 11:36:13;;;;;;;;;;;;;;;;;;5084689;28;19916;-78
2022/06/07 11:38:55;;;;;;;;;;;;;;;;;;5079504;28;19916;-79
2022/06/07 11:41:39;;;;;;;;;;;;;;;;;;5067275;28;19921;-78
2022/06/07 11:44:04;;;;;;;;;;;;;;;;;;5085838;28;19990;-78
2022/06/07 11:46:32;;;;;;;;;;;;;;;;;;5068006;28;19917;-78
2022/06/07 11:49:18;;;;;;;;;;;;;;;;;;5069354;28;19966;-78
2022/06/07 11:52:02;;;;;;;;;;;;;;;;;;5067738;28;19916;-78
2022/06/07 11:54:29;;;;;;;;;;;;;;;;;;5085090;28;19975;-78
2022/06/07 11:57:01;;;;;;;;;;;;;;;;;;5085242;28;19917;-78
2022/06/07 11:59:31;;;;;;;;;;;;;;;;;;5080820;28;20011;-78
2022/06/07 12:02:00;;;;;;;;;;;;;;;;;;5079660;28;19931;-79
2022/06/07 12:04:28;;;;;;;;;;;;;;;;;;5066587;28;19916;-78
2022/06/07 12:06:56;;;;;;;;;;;;;;;;;;5065316;28;20050;-77
2022/06/07 12:09:21;;;;;;;;;;;;;;;;;;5066076;28;19921;-78
2022/06/07 12:11:47;;;;;;;;;;;;;;;;;;5084454;28;19923;-78
2022/06/07 12:14:15;;;;;;;;;;;;;;;;;;5086211;28;20059;-78
2022/06/07 12:16:42;;;;;;;;;;;;;;;;;;5083417;28;19992;-78
2022/06/07 12:19:18;;;;;;;;;;;;;;;;;;5067589;28;19923;-78
2022/06/07 12:21:50;;;;;;;;;;;;;;;;;;5066383;28;19928;-79
2022/06/07 12:24:17;;;;;;;;;;;;;;;;;;5085539;28;19998;-78
2022/06/07 12:26:46;;;;;;;;;;;;;;;;;;5082766;28;20371;-79
2022/06/07 12:29:26;;;;;;;;;;;;;;;;;;5082858;28;19916;-79
2022/06/07 12:31:54;;;;;;;;;;;;;;;;;;5067357;28;19917;-78
2022/06/07 12:34:29;;;;;;;;;;;;;;;;;;5065781;28;19951;-79
2022/06/07 12:36:57;;;;;;;;;;;;;;;;;;5082651;28;19930;-79
2022/06/07 12:39:23;;;;;;;;;;;;;;;;;;5081226;28;19916;-83
2022/06/07 12:41:54;;;;;;;;;;;;;;;;;;5066717;28;19928;-80
2022/06/07 12:44:25;;;;;;;;;;;;;;;;;;5068357;28;19939;-80
2022/06/07 12:46:50;;;;;;;;;;;;;;;;;;5046125;28;20362;-79
2022/06/07 12:49:34;;;;;;;;;;;;;;;;;;5063641;28;19917;-78
2022/06/07 12:52:02;;;;;;;;;;;;;;;;;;5060320;28;20338;-79
2022/06/07 12:54:33;;;;;;;;;;;;;;;;;;5056674;28;20007;-78
2022/06/07 12:56:59;;;;;;;;;;;;;;;;;;5061972;28;19917;-81
2022/06/07 12:59:30;;;;;;;;;;;;;;;;;;5077126;28;19934;-82
2022/06/07 13:01:57;;;;;;;;;;;;;;;;;;5087665;28;19924;-80
2022/06/07 13:04:31;;;;;;;;;;;;;;;;;;5087655;28;19926;-81
2022/06/07 13:07:02;;;;;;;;;;;;;;;;;;5081319;28;19920;-79
2022/06/07 13:09:27;;;;;;;;;;;;;;;;;;5080130;28;19924;-78
2022/06/07 13:11:56;;;;;;;;;;;;;;;;;;5063414;28;20008;-78
2022/06/07 13:14:22;;;;;;;;;;;;;;;;;;5083039;28;19923;-78
2022/06/07 13:16:48;;;;;;;;;;;;;;;;;;5099780;28;19916;-78
2022/06/07 13:19:13;;;;;;;;;;;;;;;;;;5082816;28;20401;-78
2022/06/07 13:21:48;;;;;;;;;;;;;;;;;;5082673;28;20286;-78
2022/06/07 13:24:21;;;;;;;;;;;;;;;;;;5099658;28;19938;-78
2022/06/07 13:26:47;;;;;;;;;;;;;;;;;;5079115;28;19943;-78
2022/06/07 13:29:13;;;;;;;;;;;;;;;;;;5079858;28;19916;-78
2022/06/07 13:31:58;;;;;;;;;;;;;;;;;;5095844;28;19977;-78
2022/06/07 13:34:26;;;;;;;;;;;;;;;;;;5097142;28;19916;-78
2022/06/07 13:37:08;;;;;;;;;;;;;;;;;;5096950;28;19963;-78
2022/06/07 13:39:35;;;;;;;;;;;;;;;;;;5079671;28;19916;-78
2022/06/07 13:42:10;;;;;;;;;;;;;;;;;;5096604;28;19959;-78
2022/06/07 13:44:40;;;;;;;;;;;;;;;;;;5079526;28;19920;-78
2022/06/07 13:47:19;;;;;;;;;;;;;;;;;;5079166;28;19916;-78
2022/06/07 13:55:47;;;;;;;;;;;;;;;;;;5096442;28;19916;-78
2022/06/07 13:58:13;;;;;;;;;;;;;;;;;;5098320;28;19916;-78
2022/06/07 14:00:38;;;;;;;;;;;;;;;;;;5096920;28;19927;-78
2022/06/07 14:03:13;;;;;;;;;;;;;;;;;;5100152;28;20483;-78
2022/06/07 14:05:38;;;;;;;;;;;;;;;;;;5100447;28;20003;-78
2022/06/07 14:08:09;;;;;;;;;;;;;;;;;;5079716;28;19948;-77
2022/06/07 14:10:35;;;;;;;;;;;;;;;;;;5077460;28;19962;-77
2022/06/07 14:13:01;;;;;;;;;;;;;;;;;;5094739;28;19916;-77
2022/06/07 14:15:28;;;;;;;;;;;;;;;;;;5082963;28;20377;-79
2022/06/07 14:17:54;;;;;;;;;;;;;;;;;;5102422;28;19942;-79
2022/06/07 14:20:21;;;;;;;;;;;;;;;;;;5086721;28;19938;-78
2022/06/07 14:22:49;;;;;;;;;;;;;;;;;;5085138;28;20382;-78
2022/06/07 14:25:19;;;;;;;;;;;;;;;;;;5081831;28;19916;-77
2022/06/07 14:27:45;;;;;;;;;;;;;;;;;;5098636;28;19951;-77
2022/06/07 14:30:12;;;;;;;;;;;;;;;;;;5080218;28;19923;-78
2022/06/07 14:32:44;;;;;;;;;;;;;;;;;;5062727;28;19924;-78
2022/06/07 14:35:21;;;;;;;;;;;;;;;;;;5079422;28;19955;-78
2022/06/07 14:37:48;;;;;;;;;;;;;;;;;;5074845;28;19921;-78
2022/06/07 14:40:20;;;;;;;;;;;;;;;;;;5077284;28;19923;-78
2022/06/07 14:42:45;;;;;;;;;;;;;;;;;;5076194;28;19966;-78
2022/06/07 14:45:15;;;;;;;;;;;;;;;;;;5071535;28;19917;-77
2022/06/07 14:47:43;;;;;;;;;;;;;;;;;;5092380;28;19916;-77
2022/06/07 14:50:13;;;;;;;;;;;;;;;;;;5094818;28;19916;-77
2022/06/07 14:52:38;;;;;;;;;;;;;;;;;;5094966;28;20011;-77
2022/06/07 14:55:04;;;;;;;;;;;;;;;;;;5093242;28;20012;-77
2022/06/07 14:57:32;;;;;;;;;;;;;;;;;;5076356;28;19920;-77
2022/06/07 14:59:59;;;;;;;;;;;;;;;;;;5075561;28;19942;-77
2022/06/07 15:02:30;;;;;;;;;;;;;;;;;;5093478;28;19989;-77
2022/06/07 15:05:02;;;;;;;;;;;;;;;;;;5073357;28;19927;-77
2022/06/07 15:07:32;;;;;;;;;;;;;;;;;;5074134;28;19963;-77
2022/06/07 15:09:59;;;;;;;;;;;;;;;;;;5074806;28;19916;-78
2022/06/07 15:12:26;;;;;;;;;;;;;;;;;;5073781;28;20370;-78
2022/06/07 15:14:53;;;;;;;;;;;;;;;;;;5074592;28;19920;-77
2022/06/07 15:17:29;;;;;;;;;;;;;;;;;;5078239;28;19917;-81
2022/06/07 15:19:54;;;;;;;;;;;;;;;;;;5077964;28;19916;-82
2022/06/07 15:22:20;;;;;;;;;;;;;;;;;;5081050;28;19920;-82
2022/06/07 15:24:45;;;;;;;;;;;;;;;;;;5079618;28;19959;-82
2022/06/07 15:27:11;;;;;;;;;;;;;;;;;;5063975;28;19939;-84
2022/06/07 15:29:55;;;;;;;;;;;;;;;;;;5079789;28;19920;-82
2022/06/07 15:32:24;;;;;;;;;;;;;;;;;;5079127;28;19916;-81
2022/06/07 15:35:01;;;;;;;;;;;;;;;;;;5062227;28;20786;-84
2022/06/07 15:37:28;;;;;;;;;;;;;;;;;;5062110;28;20479;-81
2022/06/07 15:39:53;;;;;;;;;;;;;;;;;;5079629;28;19916;-79
2022/06/07 15:45:08;;;;;;;;;;;;;;;;;;5096005;28;19979;-83
2022/06/07 15:47:35;;;;;;;;;;;;;;;;;;5079334;28;19917;-81
2022/06/07 15:50:02;;;;;;;;;;;;;;;;;;5078824;28;20382;-82
2022/06/07 15:52:30;;;;;;;;;;;;;;;;;;5078976;28;19986;-80
2022/06/07 15:54:58;;;;;;;;;;;;;;;;;;5062898;28;19987;-80
2022/06/07 15:59:02;;;;;;;;;;;;;;;;;;5079920;28;19916;-80
2022/06/07 16:00:09;;;;;;;;;;;;;;;;;;5079512;28;20003;-81
2022/06/07 16:02:39;;;;;;;;;;;;;;;;;;5086859;28;19994;-82
2022/06/07 16:05:05;;;;;;;;;;;;;;;;;;5078430;28;19939;-81
2022/06/07 16:07:30;;;;;;;;;;;;;;;;;;5080345;28;19970;-80
2022/06/07 16:09:59;;;;;;;;;;;;;;;;;;5079272;28;20397;-81
2022/06/07 16:12:25;;;;;;;;;;;;;;;;;;5079292;28;19944;-80
2022/06/07 16:14:50;;;;;;;;;;;;;;;;;;5078917;28;19923;-78
2022/06/07 16:17:16;;;;;;;;;;;;;;;;;;5079039;28;19917;-79
2022/06/07 16:19:42;;;;;;;;;;;;;;;;;;5077811;28;19928;-79
2022/06/07 16:22:08;;;;;;;;;;;;;;;;;;5077368;28;19920;-78
2022/06/07 16:24:36;;;;;;;;;;;;;;;;;;5077078;28;19966;-77
2022/06/07 16:27:01;;;;;;;;;;;;;;;;;;5074246;28;19923;-76
2022/06/07 16:34:56;;;;;;;;;;;;;;;;;;5096342;28;19916;-84
2022/06/07 16:37:24;;;;;;;;;;;;;;;;;;5084110;28;19965;-79
2022/06/07 16:39:49;;;;;;;;;;;;;;;;;;5078890;28;19920;-77
2022/06/07 16:42:14;;;;;;;;;;;;;;;;;;5093690;28;19916;-76
2022/06/07 16:44:40;;;;;;;;;;;;;;;;;;5094079;28;19926;-76
2022/06/07 16:47:06;;;;;;;;;;;;;;;;;;5093284;28;20289;-76
2022/06/07 16:49:33;;;;;;;;;;;;;;;;;;5077693;28;20381;-81
2022/06/07 16:52:00;;;;;;;;;;;;;;;;;;5079802;28;20369;-78
2022/06/07 16:54:26;;;;;;;;;;;;;;;;;;5072516;28;20263;-75
2022/06/07 16:56:53;;;;;;;;;;;;;;;;;;5083542;28;19934;-75
2022/06/07 16:59:19;;;;;;;;;;;;;;;;;;5066873;28;19924;-74
2022/06/07 17:01:45;;;;;;;;;;;;;;;;;;5070332;28;19920;-75
2022/06/07 17:04:12;;;;;;;;;;;;;;;;;;5082342;28;19916;-78
2022/06/07 17:06:48;;;;;;;;;;;;;;;;;;5066693;28;19923;-75
2022/06/07 17:09:13;;;;;;;;;;;;;;;;;;5083739;28;19916;-75
2022/06/07 17:11:39;;;;;;;;;;;;;;;;;;5083185;28;19923;-74
2022/06/07 17:14:05;;;;;;;;;;;;;;;;;;5065092;28;19916;-75
2022/06/07 17:16:31;;;;;;;;;;;;;;;;;;5066297;28;19917;-74
2022/06/07 17:18:56;;;;;;;;;;;;;;;;;;5056891;28;20314;-78
2022/06/07 17:21:22;;;;;;;;;;;;;;;;;;5072889;28;19986;-76
2022/06/07 17:23:48;;;;;;;;;;;;;;;;;;5074897;28;19916;-77
2022/06/07 17:26:15;;;;;;;;;;;;;;;;;;5074402;28;19924;-77
2022/06/07 17:28:41;;;;;;;;;;;;;;;;;;5056900;28;19924;-77
2022/06/07 17:31:08;;;;;;;;;;;;;;;;;;5057583;28;19935;-77
2022/06/07 17:33:34;;;;;;;;;;;;;;;;;;5057770;28;19916;-76
2022/06/07 17:36:00;;;;;;;;;;;;;;;;;;5085987;28;20266;-76
2022/06/07 17:38:25;;;;;;;;;;;;;;;;;;5093376;28;19969;-75
2022/06/07 17:40:51;;;;;;;;;;;;;;;;;;5093682;28;19920;-74
2022/06/07 17:43:16;;;;;;;;;;;;;;;;;;5075847;28;19916;-74